sensor_id;sensor_type;location;lat;lon;timestamp;P1;durP1;ratioP1;P2;durP2;ratioP2
62289;SDS011;48284;46.828;29.480;2022-10-16T00:01:28;4.45;;;3.17;;
62289;SDS011;48284;46.828;29.480;2022-10-16T00:03:59;5.70;;;3.25;;
62289;SDS011;48284;46.828;29.480;2022-10-16T00:06:29;5.40;;;3.05;;
62289;SDS011;48284;46.828;29.480;2022-10-16T00:09:00;3.95;;;2.85;;
62289;SDS011;48284;46.828;29.480;2022-10-16T00:11:29;4.43;;;2.80;;
62289;SDS011;48284;46.828;29.480;2022-10-16T00:14:01;4.13;;;2.75;;
62289;SDS011;48284;46.828;29.480;2022-10-16T00:16:33;3.42;;;2.78;;
62289;SDS011;48284;46.828;29.480;2022-10-16T00:19:02;6.03;;;3.13;;
62289;SDS011;48284;46.828;29.480;2022-10-16T00:21:31;3.78;;;2.85;;
62289;SDS011;48284;46.828;29.480;2022-10-16T00:24:20;5.28;;;3.28;;
62289;SDS011;48284;46.828;29.480;2022-10-16T00:26:49;3.45;;;2.65;;
62289;SDS011;48284;46.828;29.480;2022-10-16T00:29:17;4.13;;;2.85;;
62289;SDS011;48284;46.828;29.480;2022-10-16T00:31:46;4.78;;;3.20;;
62289;SDS011;48284;46.828;29.480;2022-10-16T00:34:15;5.68;;;2.90;;
62289;SDS011;48284;46.828;29.480;2022-10-16T00:36:43;5.18;;;2.63;;
62289;SDS011;48284;46.828;29.480;2022-10-16T00:39:12;6.20;;;3.22;;
62289;SDS011;48284;46.828;29.480;2022-10-16T00:41:41;6.28;;;3.28;;
62289;SDS011;48284;46.828;29.480;2022-10-16T00:47:17;4.65;;;3.00;;
62289;SDS011;48284;46.828;29.480;2022-10-16T00:49:49;4.18;;;2.90;;
62289;SDS011;48284;46.828;29.480;2022-10-16T00:52:19;4.72;;;2.90;;
62289;SDS011;48284;46.828;29.480;2022-10-16T00:54:48;5.22;;;2.78;;
62289;SDS011;48284;46.828;29.480;2022-10-16T00:57:19;4.50;;;3.08;;
62289;SDS011;48284;46.828;29.480;2022-10-16T00:59:48;2.72;;;2.40;;
62289;SDS011;48284;46.828;29.480;2022-10-16T01:02:16;4.82;;;3.10;;
62289;SDS011;48284;46.828;29.480;2022-10-16T01:04:46;4.70;;;2.80;;
62289;SDS011;48284;46.828;29.480;2022-10-16T01:07:19;3.92;;;2.90;;
62289;SDS011;48284;46.828;29.480;2022-10-16T01:10:02;4.65;;;2.97;;
62289;SDS011;48284;46.828;29.480;2022-10-16T01:12:41;5.13;;;3.00;;
62289;SDS011;48284;46.828;29.480;2022-10-16T01:15:17;3.03;;;2.38;;
62289;SDS011;48284;46.828;29.480;2022-10-16T01:17:53;3.85;;;2.90;;
62289;SDS011;48284;46.828;29.480;2022-10-16T01:20:29;4.50;;;3.20;;
62289;SDS011;48284;46.828;29.480;2022-10-16T01:23:13;4.65;;;2.85;;
62289;SDS011;48284;46.828;29.480;2022-10-16T01:28:45;3.42;;;2.63;;
62289;SDS011;48284;46.828;29.480;2022-10-16T01:31:19;3.88;;;2.95;;
62289;SDS011;48284;46.828;29.480;2022-10-16T01:33:54;3.90;;;2.67;;
62289;SDS011;48284;46.828;29.480;2022-10-16T01:36:29;5.00;;;3.05;;
62289;SDS011;48284;46.828;29.480;2022-10-16T01:39:04;4.95;;;2.55;;
62289;SDS011;48284;46.828;29.480;2022-10-16T01:41:39;4.80;;;2.80;;
62289;SDS011;48284;46.828;29.480;2022-10-16T01:44:14;4.43;;;2.75;;
62289;SDS011;48284;46.828;29.480;2022-10-16T01:46:46;4.07;;;2.60;;
62289;SDS011;48284;46.828;29.480;2022-10-16T01:49:18;3.53;;;2.72;;
62289;SDS011;48284;46.828;29.480;2022-10-16T01:51:49;3.60;;;2.60;;
62289;SDS011;48284;46.828;29.480;2022-10-16T01:54:21;4.75;;;2.90;;
62289;SDS011;48284;46.828;29.480;2022-10-16T01:56:53;4.63;;;2.35;;
62289;SDS011;48284;46.828;29.480;2022-10-16T01:59:25;3.53;;;2.50;;
62289;SDS011;48284;46.828;29.480;2022-10-16T02:01:58;4.63;;;2.53;;
62289;SDS011;48284;46.828;29.480;2022-10-16T02:04:31;3.22;;;2.47;;
62289;SDS011;48284;46.828;29.480;2022-10-16T02:07:02;4.20;;;2.63;;
62289;SDS011;48284;46.828;29.480;2022-10-16T02:09:32;4.00;;;2.67;;
62289;SDS011;48284;46.828;29.480;2022-10-16T02:12:03;4.80;;;2.40;;
62289;SDS011;48284;46.828;29.480;2022-10-16T02:14:38;3.42;;;2.30;;
62289;SDS011;48284;46.828;29.480;2022-10-16T02:17:12;4.40;;;3.03;;
62289;SDS011;48284;46.828;29.480;2022-10-16T02:19:41;5.40;;;2.67;;
62289;SDS011;48284;46.828;29.480;2022-10-16T02:22:14;4.22;;;2.60;;
62289;SDS011;48284;46.828;29.480;2022-10-16T02:24:48;4.78;;;2.55;;
62289;SDS011;48284;46.828;29.480;2022-10-16T02:27:24;3.20;;;2.40;;
62289;SDS011;48284;46.828;29.480;2022-10-16T02:29:58;3.58;;;2.33;;
62289;SDS011;48284;46.828;29.480;2022-10-16T02:32:35;3.88;;;2.50;;
62289;SDS011;48284;46.828;29.480;2022-10-16T02:35:08;4.75;;;2.72;;
62289;SDS011;48284;46.828;29.480;2022-10-16T02:37:37;3.95;;;2.30;;
62289;SDS011;48284;46.828;29.480;2022-10-16T02:40:08;4.43;;;2.28;;
62289;SDS011;48284;46.828;29.480;2022-10-16T02:42:39;4.30;;;2.83;;
62289;SDS011;48284;46.828;29.480;2022-10-16T02:45:10;3.85;;;2.42;;
62289;SDS011;48284;46.828;29.480;2022-10-16T02:47:39;5.18;;;2.50;;
62289;SDS011;48284;46.828;29.480;2022-10-16T02:50:08;3.03;;;2.30;;
62289;SDS011;48284;46.828;29.480;2022-10-16T02:52:36;4.63;;;2.55;;
62289;SDS011;48284;46.828;29.480;2022-10-16T02:55:05;4.47;;;2.80;;
62289;SDS011;48284;46.828;29.480;2022-10-16T02:57:34;3.53;;;2.22;;
62289;SDS011;48284;46.828;29.480;2022-10-16T03:00:03;3.33;;;2.53;;
62289;SDS011;48284;46.828;29.480;2022-10-16T03:02:34;2.67;;;2.30;;
62289;SDS011;48284;46.828;29.480;2022-10-16T03:05:03;4.68;;;2.63;;
62289;SDS011;48284;46.828;29.480;2022-10-16T03:07:32;3.55;;;2.60;;
62289;SDS011;48284;46.828;29.480;2022-10-16T03:10:01;4.40;;;2.72;;
62289;SDS011;48284;46.828;29.480;2022-10-16T03:12:30;3.55;;;2.58;;
62289;SDS011;48284;46.828;29.480;2022-10-16T03:14:58;3.70;;;2.83;;
62289;SDS011;48284;46.828;29.480;2022-10-16T03:17:28;3.20;;;2.42;;
62289;SDS011;48284;46.828;29.480;2022-10-16T03:19:58;3.78;;;2.42;;
62289;SDS011;48284;46.828;29.480;2022-10-16T03:22:29;3.88;;;2.70;;
62289;SDS011;48284;46.828;29.480;2022-10-16T03:24:57;3.53;;;2.90;;
62289;SDS011;48284;46.828;29.480;2022-10-16T03:27:25;4.13;;;2.90;;
62289;SDS011;48284;46.828;29.480;2022-10-16T03:29:55;4.28;;;2.72;;
62289;SDS011;48284;46.828;29.480;2022-10-16T03:32:23;4.28;;;2.83;;
62289;SDS011;48284;46.828;29.480;2022-10-16T03:34:52;4.70;;;2.72;;
62289;SDS011;48284;46.828;29.480;2022-10-16T03:37:22;5.20;;;2.90;;
62289;SDS011;48284;46.828;29.480;2022-10-16T03:39:51;4.38;;;3.03;;
62289;SDS011;48284;46.828;29.480;2022-10-16T03:42:20;6.80;;;3.10;;
62289;SDS011;48284;46.828;29.480;2022-10-16T03:44:48;3.53;;;2.75;;
62289;SDS011;48284;46.828;29.480;2022-10-16T03:47:17;3.20;;;2.80;;
62289;SDS011;48284;46.828;29.480;2022-10-16T03:49:48;5.05;;;2.70;;
62289;SDS011;48284;46.828;29.480;2022-10-16T03:52:17;5.07;;;2.92;;
62289;SDS011;48284;46.828;29.480;2022-10-16T03:54:47;6.60;;;3.45;;
62289;SDS011;48284;46.828;29.480;2022-10-16T03:57:15;5.05;;;2.85;;
62289;SDS011;48284;46.828;29.480;2022-10-16T03:59:44;6.72;;;3.58;;
62289;SDS011;48284;46.828;29.480;2022-10-16T04:02:12;6.23;;;3.40;;
62289;SDS011;48284;46.828;29.480;2022-10-16T04:04:41;6.30;;;3.25;;
62289;SDS011;48284;46.828;29.480;2022-10-16T04:07:09;5.20;;;3.40;;
62289;SDS011;48284;46.828;29.480;2022-10-16T04:09:38;3.83;;;3.10;;
62289;SDS011;48284;46.828;29.480;2022-10-16T04:12:08;4.33;;;3.20;;
62289;SDS011;48284;46.828;29.480;2022-10-16T04:14:36;4.60;;;2.85;;
62289;SDS011;48284;46.828;29.480;2022-10-16T04:17:05;5.20;;;3.40;;
62289;SDS011;48284;46.828;29.480;2022-10-16T04:19:33;6.05;;;3.33;;
62289;SDS011;48284;46.828;29.480;2022-10-16T04:22:02;4.85;;;3.20;;
62289;SDS011;48284;46.828;29.480;2022-10-16T04:24:30;5.38;;;3.42;;
62289;SDS011;48284;46.828;29.480;2022-10-16T04:26:59;5.68;;;3.13;;
62289;SDS011;48284;46.828;29.480;2022-10-16T04:29:29;6.75;;;3.75;;
62289;SDS011;48284;46.828;29.480;2022-10-16T04:31:57;7.55;;;3.58;;
62289;SDS011;48284;46.828;29.480;2022-10-16T04:34:25;5.00;;;3.28;;
62289;SDS011;48284;46.828;29.480;2022-10-16T04:36:54;5.75;;;3.53;;
62289;SDS011;48284;46.828;29.480;2022-10-16T04:39:22;4.83;;;3.23;;
62289;SDS011;48284;46.828;29.480;2022-10-16T04:41:51;5.17;;;3.60;;
62289;SDS011;48284;46.828;29.480;2022-10-16T04:44:19;5.10;;;3.30;;
62289;SDS011;48284;46.828;29.480;2022-10-16T04:46:51;5.03;;;3.33;;
62289;SDS011;48284;46.828;29.480;2022-10-16T04:49:19;4.82;;;2.90;;
62289;SDS011;48284;46.828;29.480;2022-10-16T04:51:48;6.23;;;3.80;;
62289;SDS011;48284;46.828;29.480;2022-10-16T04:54:16;4.72;;;3.33;;
62289;SDS011;48284;46.828;29.480;2022-10-16T04:56:45;6.40;;;3.37;;
62289;SDS011;48284;46.828;29.480;2022-10-16T05:01:43;5.47;;;3.13;;
62289;SDS011;48284;46.828;29.480;2022-10-16T05:04:13;5.30;;;3.30;;
62289;SDS011;48284;46.828;29.480;2022-10-16T05:06:42;5.72;;;3.40;;
62289;SDS011;48284;46.828;29.480;2022-10-16T05:09:10;5.78;;;3.78;;
62289;SDS011;48284;46.828;29.480;2022-10-16T05:11:39;5.50;;;3.40;;
62289;SDS011;48284;46.828;29.480;2022-10-16T05:14:07;6.88;;;3.63;;
62289;SDS011;48284;46.828;29.480;2022-10-16T05:16:36;8.43;;;3.33;;
62289;SDS011;48284;46.828;29.480;2022-10-16T05:19:05;6.72;;;3.60;;
62289;SDS011;48284;46.828;29.480;2022-10-16T05:21:54;7.77;;;4.13;;
62289;SDS011;48284;46.828;29.480;2022-10-16T05:24:23;6.57;;;3.30;;
62289;SDS011;48284;46.828;29.480;2022-10-16T05:26:52;7.13;;;3.63;;
62289;SDS011;48284;46.828;29.480;2022-10-16T05:29:20;5.50;;;3.25;;
62289;SDS011;48284;46.828;29.480;2022-10-16T05:31:50;6.82;;;3.85;;
62289;SDS011;48284;46.828;29.480;2022-10-16T05:34:19;4.82;;;3.28;;
62289;SDS011;48284;46.828;29.480;2022-10-16T05:36:48;4.13;;;3.42;;
62289;SDS011;48284;46.828;29.480;2022-10-16T05:39:18;4.70;;;3.83;;
62289;SDS011;48284;46.828;29.480;2022-10-16T05:41:46;5.15;;;3.70;;
62289;SDS011;48284;46.828;29.480;2022-10-16T05:44:18;7.85;;;3.83;;
62289;SDS011;48284;46.828;29.480;2022-10-16T05:46:47;5.68;;;3.75;;
62289;SDS011;48284;46.828;29.480;2022-10-16T05:49:15;7.90;;;3.67;;
62289;SDS011;48284;46.828;29.480;2022-10-16T05:51:44;5.95;;;3.40;;
62289;SDS011;48284;46.828;29.480;2022-10-16T05:54:12;7.57;;;3.60;;
62289;SDS011;48284;46.828;29.480;2022-10-16T05:56:43;4.68;;;3.40;;
62289;SDS011;48284;46.828;29.480;2022-10-16T05:59:11;5.95;;;3.88;;
62289;SDS011;48284;46.828;29.480;2022-10-16T06:01:39;8.63;;;3.60;;
62289;SDS011;48284;46.828;29.480;2022-10-16T06:04:08;6.32;;;3.80;;
62289;SDS011;48284;46.828;29.480;2022-10-16T06:06:42;5.57;;;3.53;;
62289;SDS011;48284;46.828;29.480;2022-10-16T06:09:10;5.57;;;3.33;;
62289;SDS011;48284;46.828;29.480;2022-10-16T06:11:38;7.23;;;4.00;;
62289;SDS011;48284;46.828;29.480;2022-10-16T06:14:08;5.73;;;3.57;;
62289;SDS011;48284;46.828;29.480;2022-10-16T06:16:37;7.47;;;3.65;;
62289;SDS011;48284;46.828;29.480;2022-10-16T06:19:06;4.68;;;3.72;;
62289;SDS011;48284;46.828;29.480;2022-10-16T06:21:36;5.10;;;3.40;;
62289;SDS011;48284;46.828;29.480;2022-10-16T06:24:04;6.20;;;3.83;;
62289;SDS011;48284;46.828;29.480;2022-10-16T06:26:33;7.53;;;3.73;;
62289;SDS011;48284;46.828;29.480;2022-10-16T06:29:01;4.50;;;3.50;;
62289;SDS011;48284;46.828;29.480;2022-10-16T06:31:31;6.70;;;3.60;;
62289;SDS011;48284;46.828;29.480;2022-10-16T06:34:00;6.20;;;3.70;;
62289;SDS011;48284;46.828;29.480;2022-10-16T06:36:28;6.68;;;3.60;;
62289;SDS011;48284;46.828;29.480;2022-10-16T06:38:57;6.50;;;3.90;;
62289;SDS011;48284;46.828;29.480;2022-10-16T06:41:25;6.30;;;3.60;;
62289;SDS011;48284;46.828;29.480;2022-10-16T06:43:54;4.70;;;3.50;;
62289;SDS011;48284;46.828;29.480;2022-10-16T06:46:23;7.90;;;3.38;;
62289;SDS011;48284;46.828;29.480;2022-10-16T06:48:53;5.75;;;3.60;;
62289;SDS011;48284;46.828;29.480;2022-10-16T06:51:22;5.75;;;3.03;;
62289;SDS011;48284;46.828;29.480;2022-10-16T06:53:52;4.15;;;3.13;;
62289;SDS011;48284;46.828;29.480;2022-10-16T06:56:30;4.40;;;3.55;;
62289;SDS011;48284;46.828;29.480;2022-10-16T06:59:00;4.95;;;3.15;;
62289;SDS011;48284;46.828;29.480;2022-10-16T07:01:29;4.03;;;3.30;;
62289;SDS011;48284;46.828;29.480;2022-10-16T07:03:59;7.40;;;3.53;;
62289;SDS011;48284;46.828;29.480;2022-10-16T07:06:30;4.88;;;3.80;;
62289;SDS011;48284;46.828;29.480;2022-10-16T07:09:02;6.28;;;3.33;;
62289;SDS011;48284;46.828;29.480;2022-10-16T07:11:32;6.25;;;3.33;;
62289;SDS011;48284;46.828;29.480;2022-10-16T07:14:01;5.03;;;3.53;;
62289;SDS011;48284;46.828;29.480;2022-10-16T07:16:31;5.93;;;3.30;;
62289;SDS011;48284;46.828;29.480;2022-10-16T07:19:02;4.78;;;3.33;;
62289;SDS011;48284;46.828;29.480;2022-10-16T07:21:31;3.88;;;2.92;;
62289;SDS011;48284;46.828;29.480;2022-10-16T07:24:03;5.40;;;3.40;;
62289;SDS011;48284;46.828;29.480;2022-10-16T07:26:34;4.72;;;3.22;;
62289;SDS011;48284;46.828;29.480;2022-10-16T07:29:03;4.65;;;2.97;;
62289;SDS011;48284;46.828;29.480;2022-10-16T07:31:32;6.53;;;3.22;;
62289;SDS011;48284;46.828;29.480;2022-10-16T07:34:02;5.70;;;4.40;;
62289;SDS011;48284;46.828;29.480;2022-10-16T07:36:31;6.30;;;3.47;;
62289;SDS011;48284;46.828;29.480;2022-10-16T07:38:59;5.00;;;3.25;;
62289;SDS011;48284;46.828;29.480;2022-10-16T07:41:28;4.38;;;2.92;;
62289;SDS011;48284;46.828;29.480;2022-10-16T07:43:56;5.38;;;3.05;;
62289;SDS011;48284;46.828;29.480;2022-10-16T07:46:27;5.78;;;3.30;;
62289;SDS011;48284;46.828;29.480;2022-10-16T07:48:56;5.38;;;3.42;;
62289;SDS011;48284;46.828;29.480;2022-10-16T07:51:26;7.78;;;3.40;;
62289;SDS011;48284;46.828;29.480;2022-10-16T07:53:55;3.75;;;3.00;;
62289;SDS011;48284;46.828;29.480;2022-10-16T07:56:23;4.53;;;3.25;;
62289;SDS011;48284;46.828;29.480;2022-10-16T07:58:52;4.18;;;3.15;;
62289;SDS011;48284;46.828;29.480;2022-10-16T08:01:21;5.47;;;3.25;;
62289;SDS011;48284;46.828;29.480;2022-10-16T08:03:50;4.40;;;2.90;;
62289;SDS011;48284;46.828;29.480;2022-10-16T08:06:20;5.45;;;3.15;;
62289;SDS011;48284;46.828;29.480;2022-10-16T08:08:55;5.30;;;3.20;;
62289;SDS011;48284;46.828;29.480;2022-10-16T08:11:26;4.65;;;3.10;;
62289;SDS011;48284;46.828;29.480;2022-10-16T08:13:54;4.57;;;2.60;;
62289;SDS011;48284;46.828;29.480;2022-10-16T08:16:23;11.88;;;3.70;;
62289;SDS011;48284;46.828;29.480;2022-10-16T08:18:51;7.43;;;3.28;;
62289;SDS011;48284;46.828;29.480;2022-10-16T08:21:20;5.85;;;3.05;;
62289;SDS011;48284;46.828;29.480;2022-10-16T08:23:50;4.50;;;2.75;;
62289;SDS011;48284;46.828;29.480;2022-10-16T08:26:26;10.45;;;2.80;;
62289;SDS011;48284;46.828;29.480;2022-10-16T08:28:55;6.88;;;2.88;;
62289;SDS011;48284;46.828;29.480;2022-10-16T08:31:24;6.93;;;2.63;;
62289;SDS011;48284;46.828;29.480;2022-10-16T08:33:53;24.88;;;3.03;;
62289;SDS011;48284;46.828;29.480;2022-10-16T08:36:21;5.75;;;2.88;;
62289;SDS011;48284;46.828;29.480;2022-10-16T08:38:50;8.38;;;2.78;;
62289;SDS011;48284;46.828;29.480;2022-10-16T08:41:46;7.22;;;2.63;;
62289;SDS011;48284;46.828;29.480;2022-10-16T08:44:34;5.20;;;2.72;;
62289;SDS011;48284;46.828;29.480;2022-10-16T08:47:21;4.38;;;2.90;;
62289;SDS011;48284;46.828;29.480;2022-10-16T08:49:55;5.30;;;2.60;;
62289;SDS011;48284;46.828;29.480;2022-10-16T08:52:28;7.22;;;2.47;;
62289;SDS011;48284;46.828;29.480;2022-10-16T08:54:59;4.80;;;2.08;;
62289;SDS011;48284;46.828;29.480;2022-10-16T08:57:30;5.72;;;2.72;;
62289;SDS011;48284;46.828;29.480;2022-10-16T09:00:00;7.53;;;2.90;;
62289;SDS011;48284;46.828;29.480;2022-10-16T09:02:40;4.22;;;2.42;;
62289;SDS011;48284;46.828;29.480;2022-10-16T09:05:20;8.98;;;2.92;;
62289;SDS011;48284;46.828;29.480;2022-10-16T09:07:59;5.13;;;2.60;;
62289;SDS011;48284;46.828;29.480;2022-10-16T09:10:41;6.43;;;3.05;;
62289;SDS011;48284;46.828;29.480;2022-10-16T09:13:21;6.53;;;2.90;;
62289;SDS011;48284;46.828;29.480;2022-10-16T09:16:10;5.47;;;2.65;;
62289;SDS011;48284;46.828;29.480;2022-10-16T09:18:45;5.72;;;2.50;;
62289;SDS011;48284;46.828;29.480;2022-10-16T09:21:19;4.13;;;2.35;;
62289;SDS011;48284;46.828;29.480;2022-10-16T09:23:51;4.00;;;2.50;;
62289;SDS011;48284;46.828;29.480;2022-10-16T09:26:21;4.47;;;2.60;;
62289;SDS011;48284;46.828;29.480;2022-10-16T09:28:56;5.05;;;2.22;;
62289;SDS011;48284;46.828;29.480;2022-10-16T09:31:25;5.43;;;2.40;;
62289;SDS011;48284;46.828;29.480;2022-10-16T09:33:55;4.65;;;2.28;;
62289;SDS011;48284;46.828;29.480;2022-10-16T09:36:27;5.00;;;2.65;;
62289;SDS011;48284;46.828;29.480;2022-10-16T09:39:02;2.90;;;2.17;;
62289;SDS011;48284;46.828;29.480;2022-10-16T09:41:33;4.72;;;2.50;;
62289;SDS011;48284;46.828;29.480;2022-10-16T09:44:06;5.78;;;2.42;;
62289;SDS011;48284;46.828;29.480;2022-10-16T09:46:44;5.43;;;2.58;;
62289;SDS011;48284;46.828;29.480;2022-10-16T09:49:20;5.82;;;2.58;;
62289;SDS011;48284;46.828;29.480;2022-10-16T09:51:51;5.47;;;2.40;;
62289;SDS011;48284;46.828;29.480;2022-10-16T09:54:31;8.45;;;2.50;;
62289;SDS011;48284;46.828;29.480;2022-10-16T09:57:06;4.90;;;2.30;;
62289;SDS011;48284;46.828;29.480;2022-10-16T09:59:45;3.17;;;2.30;;
62289;SDS011;48284;46.828;29.480;2022-10-16T10:02:15;5.88;;;2.50;;
62289;SDS011;48284;46.828;29.480;2022-10-16T10:04:48;5.32;;;2.92;;
62289;SDS011;48284;46.828;29.480;2022-10-16T10:07:22;5.78;;;2.45;;
62289;SDS011;48284;46.828;29.480;2022-10-16T10:09:55;6.85;;;2.63;;
62289;SDS011;48284;46.828;29.480;2022-10-16T10:12:25;2.95;;;2.40;;
62289;SDS011;48284;46.828;29.480;2022-10-16T10:14:57;5.75;;;2.58;;
62289;SDS011;48284;46.828;29.480;2022-10-16T10:17:32;5.00;;;2.30;;
62289;SDS011;48284;46.828;29.480;2022-10-16T10:20:14;5.32;;;2.63;;
62289;SDS011;48284;46.828;29.480;2022-10-16T10:22:51;4.45;;;2.20;;
62289;SDS011;48284;46.828;29.480;2022-10-16T10:25:23;3.70;;;2.28;;
62289;SDS011;48284;46.828;29.480;2022-10-16T10:28:06;4.55;;;2.38;;
62289;SDS011;48284;46.828;29.480;2022-10-16T10:33:25;3.92;;;1.90;;
62289;SDS011;48284;46.828;29.480;2022-10-16T10:36:02;4.70;;;2.13;;
62289;SDS011;48284;46.828;29.480;2022-10-16T10:38:39;4.40;;;2.63;;
62289;SDS011;48284;46.828;29.480;2022-10-16T10:41:31;4.85;;;2.15;;
62289;SDS011;48284;46.828;29.480;2022-10-16T10:44:26;3.78;;;2.15;;
62289;SDS011;48284;46.828;29.480;2022-10-16T10:47:13;3.35;;;1.83;;
62289;SDS011;48284;46.828;29.480;2022-10-16T10:49:54;6.57;;;2.88;;
62289;SDS011;48284;46.828;29.480;2022-10-16T10:52:34;3.13;;;1.95;;
62289;SDS011;48284;46.828;29.480;2022-10-16T10:55:10;4.18;;;2.25;;
62289;SDS011;48284;46.828;29.480;2022-10-16T10:57:53;4.28;;;2.30;;
62289;SDS011;48284;46.828;29.480;2022-10-16T11:00:47;7.15;;;2.38;;
62289;SDS011;48284;46.828;29.480;2022-10-16T11:03:31;3.35;;;2.17;;
62289;SDS011;48284;46.828;29.480;2022-10-16T11:06:10;7.60;;;2.40;;
62289;SDS011;48284;46.828;29.480;2022-10-16T11:08:45;5.20;;;2.25;;
62289;SDS011;48284;46.828;29.480;2022-10-16T11:11:24;5.72;;;2.10;;
62289;SDS011;48284;46.828;29.480;2022-10-16T11:13:58;6.20;;;2.03;;
62289;SDS011;48284;46.828;29.480;2022-10-16T11:16:31;3.13;;;2.00;;
62289;SDS011;48284;46.828;29.480;2022-10-16T11:19:05;5.70;;;2.60;;
62289;SDS011;48284;46.828;29.480;2022-10-16T11:21:43;4.10;;;2.10;;
62289;SDS011;48284;46.828;29.480;2022-10-16T11:24:18;3.50;;;2.15;;
62289;SDS011;48284;46.828;29.480;2022-10-16T11:26:51;4.10;;;1.90;;
62289;SDS011;48284;46.828;29.480;2022-10-16T11:29:25;5.65;;;1.90;;
62289;SDS011;48284;46.828;29.480;2022-10-16T11:31:58;6.07;;;2.20;;
62289;SDS011;48284;46.828;29.480;2022-10-16T11:34:36;6.05;;;2.20;;
62289;SDS011;48284;46.828;29.480;2022-10-16T11:37:11;3.78;;;2.08;;
62289;SDS011;48284;46.828;29.480;2022-10-16T11:39:43;5.95;;;2.20;;
62289;SDS011;48284;46.828;29.480;2022-10-16T11:42:15;4.05;;;1.92;;
62289;SDS011;48284;46.828;29.480;2022-10-16T11:44:51;4.72;;;2.15;;
62289;SDS011;48284;46.828;29.480;2022-10-16T11:47:31;5.78;;;1.90;;
62289;SDS011;48284;46.828;29.480;2022-10-16T11:50:25;4.22;;;2.15;;
62289;SDS011;48284;46.828;29.480;2022-10-16T11:52:59;3.65;;;2.30;;
62289;SDS011;48284;46.828;29.480;2022-10-16T11:55:32;11.38;;;2.50;;
62289;SDS011;48284;46.828;29.480;2022-10-16T11:58:13;5.35;;;1.88;;
62289;SDS011;48284;46.828;29.480;2022-10-16T12:00:47;5.82;;;2.58;;
62289;SDS011;48284;46.828;29.480;2022-10-16T12:03:25;6.82;;;2.17;;
62289;SDS011;48284;46.828;29.480;2022-10-16T12:06:01;4.53;;;2.50;;
62289;SDS011;48284;46.828;29.480;2022-10-16T12:08:38;5.38;;;2.30;;
62289;SDS011;48284;46.828;29.480;2022-10-16T12:13:37;4.93;;;2.15;;
62289;SDS011;48284;46.828;29.480;2022-10-16T12:16:19;3.38;;;1.90;;
62289;SDS011;48284;46.828;29.480;2022-10-16T12:19:02;6.90;;;2.45;;
62289;SDS011;48284;46.828;29.480;2022-10-16T12:21:39;7.25;;;2.50;;
62289;SDS011;48284;46.828;29.480;2022-10-16T12:24:19;9.15;;;2.30;;
62289;SDS011;48284;46.828;29.480;2022-10-16T12:26:59;6.10;;;2.50;;
62289;SDS011;48284;46.828;29.480;2022-10-16T12:29:31;5.32;;;2.17;;
62289;SDS011;48284;46.828;29.480;2022-10-16T12:32:03;5.40;;;2.05;;
62289;SDS011;48284;46.828;29.480;2022-10-16T12:34:36;3.42;;;1.80;;
62289;SDS011;48284;46.828;29.480;2022-10-16T12:37:13;5.93;;;2.20;;
62289;SDS011;48284;46.828;29.480;2022-10-16T12:39:46;4.35;;;2.08;;
62289;SDS011;48284;46.828;29.480;2022-10-16T12:42:20;3.40;;;2.05;;
62289;SDS011;48284;46.828;29.480;2022-10-16T12:45:00;4.15;;;1.90;;
62289;SDS011;48284;46.828;29.480;2022-10-16T12:47:36;3.53;;;1.70;;
62289;SDS011;48284;46.828;29.480;2022-10-16T12:50:28;3.65;;;1.60;;
62289;SDS011;48284;46.828;29.480;2022-10-16T12:53:02;3.90;;;2.03;;
62289;SDS011;48284;46.828;29.480;2022-10-16T12:55:33;4.82;;;1.60;;
62289;SDS011;48284;46.828;29.480;2022-10-16T12:58:15;3.15;;;1.67;;
62289;SDS011;48284;46.828;29.480;2022-10-16T13:00:53;4.70;;;2.00;;
62289;SDS011;48284;46.828;29.480;2022-10-16T13:03:35;3.42;;;2.38;;
62289;SDS011;48284;46.828;29.480;2022-10-16T13:06:33;4.70;;;1.90;;
62289;SDS011;48284;46.828;29.480;2022-10-16T13:09:17;9.60;;;2.10;;
62289;SDS011;48284;46.828;29.480;2022-10-16T13:12:00;3.53;;;2.00;;
62289;SDS011;48284;46.828;29.480;2022-10-16T13:14:48;4.70;;;1.90;;
62289;SDS011;48284;46.828;29.480;2022-10-16T13:17:37;5.97;;;1.77;;
62289;SDS011;48284;46.828;29.480;2022-10-16T13:20:16;3.97;;;1.77;;
62289;SDS011;48284;46.828;29.480;2022-10-16T13:22:51;6.82;;;2.10;;
62289;SDS011;48284;46.828;29.480;2022-10-16T13:25:34;6.80;;;1.98;;
62289;SDS011;48284;46.828;29.480;2022-10-16T13:28:13;5.15;;;2.08;;
62289;SDS011;48284;46.828;29.480;2022-10-16T13:30:43;3.25;;;1.85;;
62289;SDS011;48284;46.828;29.480;2022-10-16T13:33:19;2.35;;;1.88;;
62289;SDS011;48284;46.828;29.480;2022-10-16T13:35:54;5.15;;;2.17;;
62289;SDS011;48284;46.828;29.480;2022-10-16T13:38:24;6.78;;;2.03;;
62289;SDS011;48284;46.828;29.480;2022-10-16T13:40:55;8.80;;;2.28;;
62289;SDS011;48284;46.828;29.480;2022-10-16T13:43:27;6.47;;;1.52;;
62289;SDS011;48284;46.828;29.480;2022-10-16T13:46:01;5.55;;;2.00;;
62289;SDS011;48284;46.828;29.480;2022-10-16T13:48:31;11.40;;;2.40;;
62289;SDS011;48284;46.828;29.480;2022-10-16T13:51:02;18.75;;;2.40;;
62289;SDS011;48284;46.828;29.480;2022-10-16T13:53:33;8.50;;;1.80;;
62289;SDS011;48284;46.828;29.480;2022-10-16T13:56:06;3.63;;;1.80;;
62289;SDS011;48284;46.828;29.480;2022-10-16T13:58:37;6.38;;;1.98;;
62289;SDS011;48284;46.828;29.480;2022-10-16T14:01:15;4.57;;;1.88;;
62289;SDS011;48284;46.828;29.480;2022-10-16T14:06:14;3.83;;;1.80;;
62289;SDS011;48284;46.828;29.480;2022-10-16T14:08:46;7.85;;;1.85;;
62289;SDS011;48284;46.828;29.480;2022-10-16T14:11:22;5.88;;;2.08;;
62289;SDS011;48284;46.828;29.480;2022-10-16T14:13:52;5.30;;;2.00;;
62289;SDS011;48284;46.828;29.480;2022-10-16T14:16:22;7.80;;;2.72;;
62289;SDS011;48284;46.828;29.480;2022-10-16T14:18:55;13.35;;;1.90;;
62289;SDS011;48284;46.828;29.480;2022-10-16T14:21:26;10.77;;;2.10;;
62289;SDS011;48284;46.828;29.480;2022-10-16T14:26:25;8.32;;;2.50;;
62289;SDS011;48284;46.828;29.480;2022-10-16T14:29:03;6.85;;;1.92;;
62289;SDS011;48284;46.828;29.480;2022-10-16T14:31:39;9.75;;;2.03;;
62289;SDS011;48284;46.828;29.480;2022-10-16T14:36:57;17.48;;;2.45;;
62289;SDS011;48284;46.828;29.480;2022-10-16T14:39:29;12.70;;;1.98;;
62289;SDS011;48284;46.828;29.480;2022-10-16T14:41:59;6.28;;;2.00;;
62289;SDS011;48284;46.828;29.480;2022-10-16T14:44:28;4.68;;;1.55;;
62289;SDS011;48284;46.828;29.480;2022-10-16T14:47:06;6.72;;;2.08;;
62289;SDS011;48284;46.828;29.480;2022-10-16T14:49:37;5.43;;;1.80;;
62289;SDS011;48284;46.828;29.480;2022-10-16T14:52:08;6.18;;;2.28;;
62289;SDS011;48284;46.828;29.480;2022-10-16T14:54:38;5.65;;;1.77;;
62289;SDS011;48284;46.828;29.480;2022-10-16T14:57:15;7.28;;;2.15;;
62289;SDS011;48284;46.828;29.480;2022-10-16T14:59:46;3.92;;;1.95;;
62289;SDS011;48284;46.828;29.480;2022-10-16T15:02:19;4.43;;;2.10;;
62289;SDS011;48284;46.828;29.480;2022-10-16T15:04:53;4.57;;;1.98;;
62289;SDS011;48284;46.828;29.480;2022-10-16T15:07:21;6.18;;;2.17;;
62289;SDS011;48284;46.828;29.480;2022-10-16T15:09:51;3.13;;;1.40;;
62289;SDS011;48284;46.828;29.480;2022-10-16T15:12:21;6.35;;;1.92;;
62289;SDS011;48284;46.828;29.480;2022-10-16T15:14:50;3.60;;;1.63;;
62289;SDS011;48284;46.828;29.480;2022-10-16T15:17:18;5.75;;;1.65;;
62289;SDS011;48284;46.828;29.480;2022-10-16T15:22:16;2.25;;;1.60;;
62289;SDS011;48284;46.828;29.480;2022-10-16T15:24:44;4.20;;;1.70;;
62289;SDS011;48284;46.828;29.480;2022-10-16T15:27:13;9.88;;;2.00;;
62289;SDS011;48284;46.828;29.480;2022-10-16T15:29:43;9.32;;;2.05;;